DW0125 Weather Reports


time (UTC)temp
F
wind
direction
speed
knots
gust
knots
rain 1hr
in
rain 24hr
in
rain mn
in
humidity
%
barometer
mb
20190423020009 52 39 0.0 0.0 0.00 0.00 0.00 76 999.5
20190423015509 52 39 0.0 0.0 0.00 0.00 0.00 75 999.6
20190423015244 52 38 0.0 0.0 0.00 0.00 0.00 75 999.6
20190423015009 52 38 0.0 0.0 0.00 0.00 0.00 75 999.6
20190423014509 52 38 0.0 0.0 0.00 0.00 0.00 74 999.6
20190423014209 53 38 0.0 0.0 0.00 0.00 0.00 74 999.7
20190423014009 53 39 0.0 0.0 0.00 0.00 0.00 74 999.7
20190423013509 53 39 0.0 0.0 0.00 0.00 0.00 74 999.8
20190423013208 53 38 0.0 0.0 0.00 0.00 0.00 73 999.8
20190423013009 53 38 0.0 0.0 0.00 0.00 0.00 73 999.8
20190423012209 53 38 0.0 0.0 0.00 0.00 0.00 73 999.9
20190423012009 53 38 0.0 0.0 0.00 0.00 0.00 72 999.9
20190423011510 53 38 0.0 0.0 0.00 0.00 0.00 73 1000.0
20190423011208 54 39 0.0 0.0 0.00 0.00 0.00 72 1000.1
20190423011009 54 38 0.0 0.0 0.00 0.00 0.00 72 1000.1
20190423010508 54 39 0.0 0.0 0.00 0.00 0.00 72 1000.2
20190423010208 54 38 0.0 0.0 0.00 0.00 0.00 72 1000.3
20190423010009 54 38 0.0 0.0 0.00 0.00 0.00 72 1000.3
20190423005508 54 38 0.0 0.0 0.00 0.00 0.00 71 1000.3
20190423005209 54 38 0.0 0.0 0.00 0.00 0.00 71 1000.3
20190423005009 54 38 0.0 0.0 0.00 0.00 0.00 71 1000.4
20190423004508 54 39 0.0 0.0 0.00 0.00 0.00 69 1000.4
20190423004209 54 38 0.0 0.0 0.00 0.00 0.00 69 1000.4
20190423004010 54 39 0.0 0.0 0.00 0.00 0.00 69 1000.5
20190423003508 55 39 0.0 0.0 0.00 0.00 0.00 69 1000.5
20190423003208 55 39 0.0 0.0 0.00 0.00 0.00 68 1000.5
20190423003009 55 38 0.0 0.0 0.00 0.00 0.00 68 1000.5
20190423002208 55 39 0.0 0.0 0.00 0.00 0.00 67 1000.6
20190423002009 55 39 0.0 0.0 0.00 0.00 0.00 67 1000.6
20190423001509 55 39 0.0 0.0 0.00 0.00 0.00 66 1000.7
20190423001209 56 38 0.0 0.0 0.00 0.00 0.00 65 1000.7
20190423001008 56 39 0.0 0.0 0.00 0.00 0.00 66 1000.7
20190423000515 56 39 0.0 0.0 0.00 0.00 0.00 65 1000.7
20190423000208 56 39 0.0 0.0 0.00 0.00 0.00 64 1000.7
20190423000008 56 38 0.0 0.9 0.00 0.00 0.00 64 1000.7
20190422235508 57 39 0.0 0.9 0.00 0.00 0.00 64 1000.7
20190422235208 57 38 0.9 0.9 0.00 0.00 0.00 63 1000.7
20190422235009 57 39 0.9 1.7 0.00 0.00 0.00 63 1000.7
20190422234508 57 39 0.0 0.9 0.00 0.00 0.00 61 1000.6
20190422234209 57 38 0.0 0.0 0.00 0.00 0.00 61 1000.5
20190422234009 58 38 0.0 0.0 0.00 0.00 0.00 61 1000.6
20190422233509 58 39 0.0 0.0 0.00 0.00 0.00 60 1000.7
20190422233209 58 39 0.0 0.0 0.00 0.00 0.00 60 1000.8
20190422233009 58 39 0.0 0.0 0.00 0.00 0.00 60 1000.8
20190422232208 59 39 0.0 0.0 0.00 0.00 0.00 59 1001.0
20190422232008 59 38 0.0 0.9 0.00 0.00 0.00 59 1001.0
20190422231510 59 38 0.9 1.7 0.00 0.00 0.00 58 1001.0
20190422231208 59 38 0.9 1.7 0.00 0.00 0.00 58 1001.1
20190422231009 59 39 0.9 2.6 0.00 0.00 0.00 57 1001.1
20190422230508 60 74 1.7 2.6 0.00 0.00 0.00 57 1001.2
20190422230209 60 74 0.0 0.0 0.00 0.00 0.00 56 1001.1
20190422230008 60 74 0.0 0.0 0.00 0.00 0.00 56 1001.1
20190422225508 60 74 0.0 0.0 0.00 0.00 0.00 56 1001.2
20190422225208 60 73 0.0 0.0 0.00 0.00 0.00 56 1001.2
20190422225009 60 74 0.0 0.0 0.00 0.00 0.00 55 1001.3
20190422224508 60 74 0.0 0.0 0.00 0.00 0.00 55 1001.3
20190422224209 60 74 0.0 0.0 0.00 0.00 0.00 54 1001.3
20190422224009 61 74 0.0 0.0 0.00 0.00 0.00 55 1001.3
20190422223508 61 74 0.0 0.0 0.00 0.00 0.00 54 1001.3
20190422223208 61 74 0.0 0.9 0.00 0.00 0.00 54 1001.4
20190422223009 61 74 0.0 0.9 0.00 0.00 0.00 55 1001.4
20190422222209 61 74 0.9 0.9 0.00 0.00 0.00 53 1001.4
20190422222008 61 74 0.9 0.9 0.00 0.00 0.00 52 1001.4
20190422221510 61 74 0.0 0.9 0.00 0.00 0.00 52 1001.5
20190422221208 61 73 0.0 0.9 0.00 0.00 0.00 51 1001.5
20190422221008 61 74 0.0 0.9 0.00 0.00 0.00 51 1001.5
20190422220508 62 74 0.9 1.7 0.00 0.00 0.00 52 1001.6
20190422220208 62 74 1.7 1.7 0.00 0.00 0.00 53 1001.6
20190422220008 62 74 1.7 2.6 0.00 0.00 0.00 52 1001.6
20190422215508 62 85 1.7 2.6 0.00 0.00 0.00 51 1001.7
20190422215208 62 110 0.9 0.9 0.00 0.00 0.00 51 1001.7
20190422215008 62 110 0.9 2.6 0.00 0.00 0.00 50 1001.7
20190422214508 62 111 0.9 2.6 0.00 0.00 0.00 51 1001.7
20190422214208 62 111 0.0 0.9 0.00 0.00 0.00 50 1001.7
20190422214009 62 111 0.9 2.6 0.00 0.00 0.00 50 1001.8
20190422213508 62 111 0.9 1.7 0.00 0.00 0.00 50 1001.8
20190422213208 62 111 0.9 1.7 0.00 0.00 0.00 50 1001.9
20190422213009 62 111 0.9 0.9 0.00 0.00 0.00 50 1001.9
20190422212208 63 111 0.9 2.6 0.00 0.00 0.00 49 1001.9
20190422212008 63 111 0.9 2.6 0.00 0.00 0.00 49 1001.9
20190422211508 63 106 0.9 1.7 0.00 0.00 0.00 49 1001.9
20190422211208 63 106 0.9 1.7 0.00 0.00 0.00 49 1001.9
20190422211009 63 106 0.9 2.6 0.00 0.00 0.00 49 1002.0
20190422210508 63 103 0.9 2.6 0.00 0.00 0.00 48 1002.1
20190422210208 63 103 1.7 4.3 0.00 0.00 0.00 49 1002.0
20190422210009 63 122 1.7 4.3 0.00 0.00 0.00 48 1002.1
20190422205509 63 97 1.7 2.6 0.00 0.00 0.00 48 1002.1
20190422205208 63 99 0.9 1.7 0.00 0.00 0.00 48 1002.1
20190422205008 63 99 0.9 2.6 0.00 0.00 0.00 48 1002.1
20190422204508 64 98 1.7 2.6 0.00 0.00 0.00 48 1002.1
20190422204209 64 93 1.7 2.6 0.00 0.00 0.00 48 1002.1
20190422204010 64 93 1.7 4.3 0.00 0.00 0.00 48 1002.1
20190422203508 64 117 2.6 4.3 0.00 0.00 0.00 47 1002.1
20190422203208 64 102 1.7 1.7 0.00 0.00 0.00 48 1002.1
20190422203009 64 112 2.6 4.3 0.00 0.00 0.00 47 1002.1
20190422202208 64 128 1.7 4.3 0.00 0.00 0.00 48 1002.1
20190422202008 64 128 0.9 4.3 0.00 0.00 0.00 47 1002.2
20190422201508 65 102 1.7 4.3 0.00 0.00 0.00 47 1002.2
20190422201208 65 108 1.7 4.3 0.00 0.00 0.00 47 1002.2
20190422201008 65 93 0.9 4.3 0.00 0.00 0.00 46 1002.2
20190422200508 65 144 1.7 4.3 0.00 0.00 0.00 45 1002.2
20190422200208 65 149 1.7 2.6 0.00 0.00 0.00 45 1002.2
20190422200008 65 152 1.7 5.2 0.00 0.00 0.00 45 1002.1
20190422195508 65 145 2.6 5.2 0.00 0.00 0.00 45 1002.1
20190422195208 65 143 4.3 5.2 0.00 0.00 0.00 44 1002.1
20190422195008 65 147 2.6 5.2 0.00 0.00 0.00 44 1002.0
20190422194508 65 143 4.3 5.2 0.00 0.00 0.00 42 1002.1
20190422194208 66 146 3.5 4.3 0.00 0.00 0.00 42 1002.1
20190422194009 66 142 2.6 5.2 0.00 0.00 0.00 42 1002.1
20190422193508 66 151 4.3 6.1 0.00 0.00 0.00 42 1002.0
20190422193208 66 155 3.5 4.3 0.00 0.00 0.00 42 1002.0
20190422193008 66 157 2.6 5.2 0.00 0.00 0.00 42 1002.0
20190422192208 66 146 3.5 5.2 0.00 0.00 0.00 41 1002.1
20190422192008 66 147 2.6 5.2 0.00 0.00 0.00 41 1002.1
20190422191509 67 162 3.5 4.3 0.00 0.00 0.00 40 1002.0
20190422191208 67 161 3.5 4.3 0.00 0.00 0.00 40 1002.1
20190422191008 67 142 2.6 5.2 0.00 0.00 0.00 40 1002.0
20190422190508 67 148 5.2 7.0 0.00 0.00 0.00 39 1002.0
20190422190208 67 135 4.3 6.1 0.00 0.00 0.00 39 1002.1
20190422190008 67 149 3.5 6.1 0.00 0.00 0.00 39 1002.1
20190422185508 67 142 4.3 7.8 0.00 0.00 0.00 38 1002.1
20190422185208 67 139 4.3 7.8 0.00 0.00 0.00 38 1002.0
20190422185008 68 143 5.2 7.8 0.00 0.00 0.00 38 1002.1
20190422184508 68 154 0.9 2.6 0.00 0.00 0.00 39 1002.0
20190422184208 68 154 1.7 4.3 0.00 0.00 0.00 39 1002.0
20190422184009 68 154 2.6 5.2 0.00 0.00 0.00 38 1002.0
20190422183508 68 120 1.7 2.6 0.00 0.00 0.00 38 1001.9
20190422183208 68 141 1.7 2.6 0.00 0.00 0.00 37 1001.9
20190422183009 68 140 1.7 6.1 0.00 0.00 0.00 37 1001.8
20190422182208 69 146 3.5 7.8 0.00 0.00 0.00 37 1002.0
20190422182008 69 141 3.5 7.0 0.00 0.00 0.00 36 1002.0
20190422181508 69 150 4.3 8.7 0.00 0.00 0.00 36 1002.0
20190422181208 69 168 4.3 7.0 0.00 0.00 0.00 36 1002.0
20190422181009 69 148 3.5 8.7 0.00 0.00 0.00 36 1002.1
20190422180508 69 184 5.2 7.8 0.00 0.00 0.00 36 1002.1
20190422180209 69 140 5.2 7.8 0.00 0.00 0.00 35 1002.0
20190422180008 69 149 4.3 11.3 0.00 0.00 0.00 35 1002.0
20190422175507 69 155 6.1 11.3 0.00 0.00 0.00 35 1001.9
20190422175208 69 151 6.1 11.3 0.00 0.00 0.00 36 1002.0
20190422175008 69 150 5.2 10.4 0.00 0.00 0.00 36 1002.0
20190422174511 70 158 5.2 8.7 0.00 0.00 0.00 35 1002.0
20190422174208 70 161 7.0 10.4 0.00 0.00 0.00 35 1001.9
20190422174008 70 148 7.8 11.3 0.00 0.00 0.00 35 1002.0
20190422173508 70 162 8.7 12.2 0.00 0.00 0.00 34 1002.0
20190422173208 70 149 7.0 10.4 0.00 0.00 0.00 34 1001.9
20190422173008 70 156 7.8 12.2 0.00 0.00 0.00 34 1001.9
20190422172207 71 150 7.8 12.2 0.00 0.00 0.00 33 1002.0
20190422172008 71 163 7.8 12.2 0.00 0.00 0.00 32 1002.0
20190422171508 71 154 7.8 11.3 0.00 0.00 0.00 31 1002.0
20190422171208 71 153 7.0 11.3 0.00 0.00 0.00 32 1002.0
20190422171008 71 151 7.8 11.3 0.00 0.00 0.00 32 1002.0
20190422170508 72 157 7.8 10.4 0.00 0.00 0.00 33 1001.9
20190422170208 72 151 6.1 12.2 0.00 0.00 0.00 32 1001.9
20190422170008 72 162 7.0 12.2 0.00 0.00 0.00 32 1001.9
20190422165508 73 156 7.0 13.0 0.00 0.00 0.00 30 1001.9
20190422165207 73 146 6.1 11.3 0.00 0.00 0.00 30 1001.9
20190422165008 73 168 4.3 12.2 0.00 0.00 0.00 29 1001.9
20190422164509 73 151 7.0 11.3 0.00 0.00 0.00 27 1001.9
20190422164208 73 162 6.1 10.4 0.00 0.00 0.00 28 1001.8
20190422164008 73 164 6.1 12.2 0.00 0.00 0.00 28 1001.8
20190422163508 74 155 6.1 13.0 0.00 0.00 0.00 28 1001.8
20190422163208 74 142 7.0 13.0 0.00 0.00 0.00 28 1001.9
20190422163008 74 176 7.0 11.3 0.00 0.00 0.00 27 1001.8
20190422162207 74 156 5.2 11.3 0.00 0.00 0.00 26 1001.8
20190422162008 74 157 5.2 12.2 0.00 0.00 0.00 26 1001.8
20190422161508 74 160 6.1 13.0 0.00 0.00 0.00 25 1001.9
20190422161208 74 153 7.8 14.8 0.00 0.00 0.00 25 1001.9
20190422161008 74 167 8.7 14.8 0.00 0.00 0.00 24 1001.9
20190422160508 74 157 8.7 13.0 0.00 0.00 0.00 24 1001.9
20190422160208 74 158 6.1 11.3 0.00 0.00 0.00 25 1002.0
20190422160008 75 159 7.0 14.8 0.00 0.00 0.00 25 1002.0
20190422155508 75 150 7.8 15.6 0.00 0.00 0.00 25 1001.9
20190422155208 75 169 7.0 10.4 0.00 0.00 0.00 25 1001.9
20190422155007 75 157 8.7 14.8 0.00 0.00 0.00 26 1002.0
20190422154508 76 135 3.5 10.4 0.00 0.00 0.00 28 1001.9
20190422154209 76 139 7.0 11.3 0.00 0.00 0.00 27 1002.0
20190422154008 76 165 7.8 19.1 0.00 0.00 0.00 27 1002.0
20190422153508 76 147 7.8 12.2 0.00 0.00 0.00 27 1002.0
20190422153208 76 155 8.7 14.8 0.00 0.00 0.00 26 1002.0
20190422153008 77 152 7.8 13.0 0.00 0.00 0.00 27 1002.0
20190422152207 77 113 8.7 12.2 0.00 0.00 0.00 26 1002.1
20190422152008 77 148 6.1 17.4 0.00 0.00 0.00 26 1002.1
20190422151508 77 166 6.1 17.4 0.00 0.00 0.00 25 1002.0
20190422151208 77 188 5.2 8.7 0.00 0.00 0.00 26 1002.0
20190422151008 77 150 6.1 10.4 0.00 0.00 0.00 26 1002.0
20190422150507 77 156 6.1 12.2 0.00 0.00 0.00 26 1002.0
20190422150208 78 145 5.2 12.2 0.00 0.00 0.00 26 1002.1
20190422150008 78 103 6.1 13.0 0.00 0.00 0.00 26 1002.1
20190422145508 78 163 6.1 10.4 0.00 0.00 0.00 25 1002.2
20190422145208 78 152 6.1 7.8 0.00 0.00 0.00 25 1002.2
20190422145008 78 145 7.8 11.3 0.00 0.00 0.00 25 1002.1
20190422144515 78 150 6.1 10.4 0.00 0.00 0.00 25 1002.2
20190422144208 78 145 6.1 10.4 0.00 0.00 0.00 26 1002.3
20190422144009 78 154 6.1 12.2 0.00 0.00 0.00 26 1002.3
20190422143508 78 147 5.2 13.0 0.00 0.00 0.00 26 1002.4
20190422143207 78 168 7.8 17.4 0.00 0.00 0.00 26 1002.4
20190422143008 78 80 4.3 8.7 0.00 0.00 0.00 26 1002.3
20190422142207 78 62 5.2 10.4 0.00 0.00 0.00 26 1002.5
20190422142008 77 91 6.1 10.4 0.00 0.00 0.00 25 1002.5
20190422141508 77 95 4.3 8.7 0.00 0.00 0.00 26 1002.5
20190422141207 77 89 6.1 12.2 0.00 0.00 0.00 26 1002.6
20190422141008 78 124 8.7 17.4 0.00 0.00 0.00 25 1002.6
20190422140508 78 75 5.2 10.4 0.00 0.00 0.00 25 1002.7
20190422140207 78 75 6.1 10.4 0.00 0.00 0.00 25 1002.8
20190422140008 77 89 5.2 10.4 0.00 0.00 0.00 25 1002.9
20190422135508 77 153 6.1 10.4 0.00 0.00 0.00 25 1002.8
20190422135207 77 163 4.3 11.3 0.00 0.00 0.00 25 1002.9
20190422135007 77 130 6.1 13.0 0.00 0.00 0.00 26 1003.0
20190422134507 77 107 7.0 13.0 0.00 0.00 0.00 25 1003.0
20190422134208 77 124 4.3 8.7 0.00 0.00 0.00 25 1003.0
20190422134009 77 91 5.2 12.2 0.00 0.00 0.00 26 1003.1
20190422133508 78 91 7.8 12.2 0.00 0.00 0.00 25 1003.3
20190422133207 77 68 5.2 8.7 0.00 0.00 0.00 25 1003.2
20190422133008 77 96 4.3 10.4 0.00 0.00 0.00 25 1003.3
20190422132208 77 104 5.2 12.2 0.00 0.00 0.00 26 1003.4
20190422132008 77 86 4.3 8.7 0.00 0.00 0.00 26 1003.4
20190422131509 77 101 7.0 12.2 0.00 0.00 0.00 25 1003.5
20190422131207 76 96 4.3 11.3 0.00 0.00 0.00 26 1003.5
20190422131008 76 109 2.6 6.1 0.00 0.00 0.00 27 1003.5
20190422130507 76 84 4.3 8.7 0.00 0.00 0.00 28 1003.7
20190422130208 76 77 5.2 10.4 0.00 0.00 0.00 33 1003.8
20190422130007 76 73 5.2 10.4 0.00 0.00 0.00 33 1003.8
20190422125507 76 48 3.5 10.4 0.00 0.00 0.00 32 1003.8
20190422125208 76 105 3.5 6.1 0.00 0.00 0.00 32 1003.9
20190422125008 76 105 2.6 6.1 0.00 0.00 0.00 32 1003.9
20190422124507 76 116 4.3 7.8 0.00 0.00 0.00 31 1004.0
20190422124208 76 170 4.3 11.3 0.00 0.00 0.00 30 1004.0
20190422124008 76 113 2.6 10.4 0.00 0.00 0.00 30 1003.9
20190422123508 76 155 4.3 10.4 0.00 0.00 0.00 30 1004.1
20190422123207 76 152 4.3 7.0 0.00 0.00 0.00 29 1004.1
20190422123008 75 146 4.3 10.4 0.00 0.00 0.00 30 1004.1
20190422122207 75 107 3.5 7.0 0.00 0.00 0.00 32 1004.2
20190422122007 75 102 5.2 10.4 0.00 0.00 0.00 31 1004.3
20190422121508 74 111 6.1 10.4 0.00 0.00 0.00 32 1004.3
20190422121207 74 156 2.6 7.0 0.00 0.00 0.00 33 1004.4
20190422121007 74 115 2.6 6.1 0.00 0.00 0.00 35 1004.4
20190422120508 73 147 4.3 7.0 0.00 0.00 0.00 35 1004.6
20190422120207 73 165 4.3 7.0 0.00 0.00 0.00 34 1004.6
20190422120007 73 102 4.3 7.8 0.00 0.00 0.00 33 1004.6
20190422115507 73 100 5.2 10.4 0.00 0.00 0.00 37 1004.7
20190422115208 73 73 0.9 6.1 0.00 0.00 0.00 38 1004.7
20190422115011 73 97 0.9 2.6 0.00 0.00 0.00 37 1004.7
20190422114508 73 91 3.5 7.8 0.00 0.00 0.00 37 1004.8
20190422114208 72 101 2.6 4.3 0.00 0.00 0.00 37 1004.9
20190422114008 72 132 1.7 6.1 0.00 0.00 0.00 37 1004.9
20190422113507 72 104 3.5 6.1 0.00 0.00 0.00 40 1005.0
20190422113207 71 29 1.7 4.3 0.00 0.00 0.00 40 1005.0
20190422113008 71 35 1.7 6.1 0.00 0.00 0.00 40 1005.1
20190422112208 70 71 2.6 6.1 0.00 0.00 0.00 42 1005.3
20190422112008 70 86 1.7 5.2 0.00 0.00 0.00 41 1005.3
20190422111508 70 85 3.5 5.2 0.00 0.00 0.00 42 1005.3
20190422111207 69 81 3.5 5.2 0.00 0.00 0.00 42 1005.4
20190422111008 69 82 3.5 7.0 0.00 0.00 0.00 44 1005.5
20190422110508 69 70 2.6 6.1 0.00 0.00 0.00 44 1005.5
20190422110207 68 63 4.3 7.0 0.00 0.00 0.00 44 1005.6
20190422110007 68 76 1.7 5.2 0.00 0.00 0.00 44 1005.6
20190422105507 68 163 1.7 7.0 0.00 0.00 0.00 44 1005.6
20190422105207 68 68 1.7 4.3 0.00 0.00 0.00 45 1005.7
20190422105007 68 95 3.5 8.7 0.00 0.00 0.00 44 1005.7
20190422104507 68 95 2.6 6.1 0.00 0.00 0.00 42 1005.8
20190422104207 68 95 3.5 6.1 0.00 0.00 0.00 44 1005.8
20190422104008 68 105 1.7 4.3 0.00 0.00 0.00 43 1005.8
20190422103507 68 70 4.3 5.2 0.00 0.00 0.00 44 1005.8
20190422103207 68 87 2.6 5.2 0.00 0.00 0.00 42 1005.9
20190422103007 68 62 2.6 6.1 0.00 0.00 0.00 44 1005.9
20190422102207 68 33 2.6 4.3 0.00 0.00 0.00 45 1005.9
20190422102008 68 84 2.6 5.2 0.00 0.00 0.00 46 1005.9
20190422101508 67 72 0.9 2.6 0.00 0.00 0.00 46 1006.0
20190422101207 67 88 3.5 5.2 0.00 0.00 0.00 45 1006.0
20190422101008 67 102 2.6 5.2 0.00 0.00 0.00 45 1006.1
20190422100507 67 48 2.6 5.2 0.00 0.00 0.00 45 1006.1
20190422100207 67 29 1.7 2.6 0.00 0.00 0.00 46 1006.2
20190422100007 67 33 1.7 4.3 0.00 0.00 0.00 47 1006.2
20190422095507 67 65 0.9 1.7 0.00 0.00 0.00 46 1006.3
20190422095207 67 73 0.9 1.7 0.00 0.00 0.00 45 1006.3
20190422095008 67 73 1.7 2.6 0.00 0.00 0.00 47 1006.4
20190422094507 66 20 0.9 2.6 0.00 0.00 0.00 48 1006.4
20190422094207 66 108 0.9 2.6 0.00 0.00 0.00 47 1006.4
20190422094008 65 85 1.7 2.6 0.00 0.00 0.00 48 1006.5
20190422093507 65 80 1.7 4.3 0.00 0.00 0.00 47 1006.5
20190422093207 64 63 1.7 4.3 0.00 0.00 0.00 49 1006.5
20190422093010 64 76 2.6 5.2 0.00 0.00 0.00 50 1006.5
20190422092207 63 39 1.7 2.6 0.00 0.00 0.00 51 1006.7
20190422091208 62 60 1.7 2.6 0.00 0.00 0.00 52 1006.9
20190422091008 62 91 1.7 2.6 0.00 0.00 0.00 52 1006.9
20190422090507 62 88 0.9 1.7 0.00 0.00 0.00 52 1006.9
20190422090208 62 81 3.5 5.2 0.00 0.00 0.00 52 1006.8
20190422090008 62 91 2.6 5.2 0.00 0.00 0.00 53 1006.9
20190422085507 62 98 2.6 6.1 0.00 0.00 0.00 52 1006.9
20190422085208 62 99 4.3 7.0 0.00 0.00 0.00 52 1007.0
20190422085008 62 78 1.7 5.2 0.00 0.00 0.00 53 1007.0
20190422084508 61 92 2.6 5.2 0.00 0.00 0.00 53 1007.1
20190422084208 61 80 1.7 4.3 0.00 0.00 0.00 54 1007.1
20190422084008 61 56 1.7 4.3 0.00 0.00 0.00 53 1007.1
20190422083507 61 63 2.6 5.2 0.00 0.00 0.00 54 1007.3
20190422083207 61 101 3.5 6.1 0.00 0.00 0.00 55 1007.3
20190422083007 60 77 2.6 4.3 0.00 0.00 0.00 55 1007.3
20190422082207 60 65 2.6 5.2 0.00 0.00 0.00 55 1007.3
20190422082007 60 62 1.7 4.3 0.00 0.00 0.00 55 1007.4
20190422081508 59 38 1.7 2.6 0.00 0.00 0.00 57 1007.4
20190422081207 59 54 1.7 2.6 0.00 0.00 0.00 58 1007.5
20190422081008 58 53 2.6 5.2 0.00 0.00 0.00 57 1007.5
20190422080517 58 76 1.7 4.3 0.00 0.00 0.00 59 1007.5
20190422080207 58 77 2.6 4.3 0.00 0.00 0.00 59 1007.5
20190422080007 57 60 1.7 4.3 0.00 0.00 0.00 60 1007.6
20190422075507 57 77 0.9 2.6 0.00 0.00 0.00 60 1007.7
20190422075207 56 55 0.9 2.6 0.00 0.00 0.00 63 1007.7
20190422075007 56 54 0.9 1.7 0.00 0.00 0.00 64 1007.7
20190422074507 55 55 0.9 2.6 0.00 0.00 0.00 64 1007.7
20190422074207 54 63 0.0 0.9 0.00 0.00 0.00 65 1007.8
20190422074007 54 63 1.7 4.3 0.00 0.00 0.00 65 1007.8
20190422073507 53 54 0.9 2.6 0.00 0.00 0.00 67 1007.8
20190422073207 53 54 2.6 2.6 0.00 0.00 0.00 68 1007.8
20190422073007 52 42 0.9 2.6 0.00 0.00 0.00 68 1007.8
20190422072207 51 40 1.7 2.6 0.00 0.00 0.00 68 1007.9
20190422072008 51 33 1.7 2.6 0.00 0.00 0.00 68 1008.0
20190422071508 51 56 1.7 2.6 0.00 0.00 0.00 68 1008.1
20190422071206 51 56 1.7 2.6 0.00 0.00 0.00 67 1008.1
20190422071007 51 73 0.9 1.7 0.00 0.00 0.00 68 1008.1
20190422070507 51 74 0.9 2.6 0.00 0.00 0.00 67 1008.2
20190422070206 51 74 0.9 1.7 0.00 0.00 0.00 67 1008.2
20190422070007 51 74 0.9 1.7 0.00 0.00 0.00 67 1008.2
20190422065506 50 74 0.9 1.7 0.00 0.00 0.00 67 1008.3
20190422065207 50 68 0.9 2.6 0.00 0.00 0.00 68 1008.3
20190422065007 50 49 0.9 2.6 0.00 0.00 0.00 68 1008.3
20190422064506 50 48 0.9 2.6 0.00 0.00 0.00 68 1008.4
20190422064207 49 47 1.7 2.6 0.00 0.00 0.00 68 1008.4
20190422064008 49 47 1.7 2.6 0.00 0.00 0.00 68 1008.4
20190422063507 49 52 1.7 2.6 0.00 0.00 0.00 68 1008.4
20190422063207 49 52 0.9 1.7 0.00 0.00 0.00 68 1008.5
20190422063007 49 52 0.9 2.6 0.00 0.00 0.00 68 1008.5
20190422062207 48 53 0.9 4.3 0.00 0.00 0.00 69 1008.5
20190422062007 48 53 1.7 2.6 0.00 0.00 0.00 69 1008.5
20190422061508 47 55 0.9 2.6 0.00 0.00 0.00 69 1008.6
20190422061207 47 54 1.7 2.6 0.00 0.00 0.00 71 1008.6
20190422061007 47 56 1.7 2.6 0.00 0.00 0.00 70 1008.7
20190422060507 47 56 0.9 2.6 0.00 0.00 0.00 71 1008.7
20190422060206 46 80 1.7 2.6 0.00 0.00 0.00 71 1008.8
20190422060007 46 92 1.7 2.6 0.00 0.00 0.00 71 1008.8
20190422055507 46 99 1.7 2.6 0.00 0.00 0.00 72 1008.8
20190422055207 46 99 0.9 1.7 0.00 0.00 0.00 73 1008.8
20190422055007 46 99 0.9 1.7 0.00 0.00 0.00 73 1008.8
20190422054507 45 99 0.9 1.7 0.00 0.00 0.00 73 1008.9
20190422054207 45 99 0.9 1.7 0.00 0.00 0.00 74 1008.9
20190422054007 45 99 0.9 1.7 0.00 0.00 0.00 74 1008.9
20190422053506 45 99 0.9 1.7 0.00 0.00 0.00 75 1009.0
20190422053207 44 99 0.9 2.6 0.00 0.00 0.00 75 1008.9
20190422053007 44 99 0.9 2.6 0.00 0.00 0.00 75 1008.9
20190422052207 44 99 0.0 0.0 0.00 0.00 0.00 76 1009.0
20190422052007 44 99 0.0 0.0 0.00 0.00 0.00 76 1009.0
20190422051508 44 99 0.0 0.0 0.00 0.00 0.00 75 1009.1
20190422051207 44 99 0.0 0.0 0.00 0.00 0.00 76 1009.0
20190422051007 44 99 0.0 0.0 0.00 0.00 0.00 75 1009.1
20190422050508 44 99 0.0 0.0 0.00 0.00 0.00 75 1009.2
20190422050207 44 99 0.0 0.0 0.00 0.00 0.00 75 1009.2
20190422050006 44 99 0.0 0.0 0.00 0.00 0.00 75 1009.2
20190422045507 44 99 0.0 0.0 0.00 0.00 0.00 75 1009.2
20190422045207 44 99 0.0 0.0 0.00 0.00 0.00 75 1009.2
20190422045008 44 99 0.0 0.0 0.00 0.00 0.00 75 1009.2
20190422044507 44 99 0.0 0.0 0.00 0.00 0.00 75 1009.3
20190422044207 44 99 0.0 0.0 0.00 0.00 0.00 74 1009.4
20190422044006 44 99 0.0 0.0 0.00 0.00 0.00 74 1009.4
20190422043507 45 99 0.0 0.0 0.00 0.00 0.00 73 1009.4
20190422043208 45 99 0.0 0.0 0.00 0.00 0.00 73 1009.5
20190422043008 45 99 0.0 0.0 0.00 0.00 0.00 73 1009.5
20190422042207 45 99 0.0 0.0 0.00 0.00 0.00 73 1009.6
20190422042007 45 99 0.0 0.9 0.00 0.00 0.00 73 1009.6
20190422041508 45 99 0.0 0.9 0.00 0.00 0.00 72 1009.7
20190422041207 45 99 0.9 0.9 0.00 0.00 0.00 72 1009.7
20190422041007 45 99 0.9 1.7 0.00 0.00 0.00 72 1009.7
20190422040507 45 99 0.0 0.9 0.00 0.00 0.00 71 1009.7
20190422040206 45 99 0.0 0.0 0.00 0.00 0.00 71 1009.8
20190422040007 45 99 0.0 0.9 0.00 0.00 0.00 70 1009.8
20190422035507 46 99 0.0 0.9 0.00 0.00 0.00 69 1009.8
20190422035206 46 99 0.9 0.9 0.00 0.00 0.00 69 1009.9
20190422035007 46 99 0.9 0.9 0.00 0.00 0.00 69 1009.9
20190422034506 46 99 0.9 0.9 0.00 0.00 0.00 69 1010.0
20190422034207 46 99 0.9 0.9 0.00 0.00 0.00 68 1010.1
20190422034007 46 99 0.9 0.9 0.00 0.00 0.00 68 1010.1
20190422033507 46 99 0.9 1.7 0.00 0.00 0.00 67 1010.1
20190422033207 46 99 0.9 0.9 0.00 0.00 0.00 67 1010.2
20190422033007 46 99 0.9 1.7 0.00 0.00 0.00 67 1010.2
20190422032207 47 99 0.9 0.9 0.00 0.00 0.00 66 1010.3
20190422032007 47 99 0.9 0.9 0.00 0.00 0.00 66 1010.3
20190422031507 47 99 0.9 0.9 0.00 0.00 0.00 65 1010.4
20190422031207 47 99 0.9 1.7 0.00 0.00 0.00 64 1010.4
20190422031007 47 99 0.9 2.6 0.00 0.00 0.00 64 1010.4
20190422030507 47 102 0.9 1.7 0.00 0.00 0.00 63 1010.5
20190422030206 48 102 0.9 0.9 0.00 0.00 0.00 63 1010.6
20190422030007 48 102 0.9 0.9 0.00 0.00 0.00 63 1010.6
20190422025506 48 102 0.9 1.7 0.00 0.00 0.00 63 1010.7
20190422025207 48 102 0.9 1.7 0.00 0.00 0.00 61 1010.7
20190422025007 48 102 0.9 1.7 0.00 0.00 0.00 61 1010.7
20190422024507 48 102 0.9 1.7 0.00 0.00 0.00 60 1010.8
20190422024208 49 102 0.9 1.7 0.00 0.00 0.00 60 1010.8
20190422024008 49 102 0.9 1.7 0.00 0.00 0.00 60 1010.8
20190422023508 49 102 0.9 1.7 0.00 0.00 0.00 59 1010.9
20190422023207 49 102 0.0 1.7 0.00 0.00 0.00 58 1010.9
20190422023009 49 102 0.0 0.0 0.00 0.00 0.00 57 1010.9
20190422022207 50 102 0.0 0.0 0.00 0.00 0.00 57 1011.0
20190422022007 50 102 0.0 0.0 0.00 0.00 0.00 57 1011.1
20190422021507 50 101 0.0 0.0 0.00 0.00 0.00 56 1011.2
20190422021207 50 102 0.0 0.0 0.00 0.00 0.00 56 1011.3
20190422021006 51 102 0.0 0.9 0.00 0.00 0.00 56 1011.2
20190422020507 51 102 0.0 0.9 0.00 0.00 0.00 55 1011.3
20190422020206 51 102 0.0 0.9 0.00 0.00 0.00 54 1011.4